D/T METAR WX W/DIR W/SPE G/SPE TEMP DEWP
23/05/19 13:00 EICK 231200Z 22008KT 9999 FEW008 BKN014 BKN022 13/10 Q1017 TEMPO BKN009 SW (220°) 9.2mph 13°C 10°C
23/05/19 12:30 EICK 231130Z 22010KT 9999 -DZ SCT008 BKN012 BKN016 12/11 Q1017 BECMG BKN009 -DZ SW (220°) 11.5mph 12°C 11°C
23/05/19 12:00 EICK 231100Z 25007KT 210V280 9999 -DZ SCT008 BKN012 BKN022 12/11 Q1017 BECMG BKN009 -DZ WSW (250°) 8.1mph 12°C 11°C
23/05/19 11:30 EICK 231030Z 23009KT 9999 -DZ FEW012 BKN018 BKN042 13/11 Q1017 BECMG BKN009 -DZ SW (230°) 10.4mph 13°C 11°C
23/05/19 11:00 EICK 231000Z 24008KT 9999 -DZ FEW012 BKN014 BKN042 13/11 Q1016 BECMG BKN009 -DZ WSW (240°) 9.2mph 13°C 11°C
23/05/19 10:30 EICK 230930Z 22007KT 9999 FEW012 SCT022 BKN042 14/10 Q1017 BECMG BKN009 SW (220°) 8.1mph 14°C 10°C
23/05/19 10:00 EICK 230900Z 21008KT 9999 FEW008 SCT016 BKN028 12/10 Q1017 BECMG BKN009 SSW (210°) 9.2mph 12°C 10°C
23/05/19 09:30 EICK 230830Z 21007KT 9999 FEW008 SCT016 BKN030 12/10 Q1017 BECMG BKN009 SSW (210°) 8.1mph 12°C 10°C
23/05/19 09:00 EICK 230800Z 20006KT 9999 FEW008 SCT028 BKN060 12/10 Q1016 BECMG BKN009 SSW (200°) 6.9mph 12°C 10°C
23/05/19 08:30 EICK 230730Z 21005KT 170V240 9999 FEW007 BKN060 12/10 Q1016 BECMG 4000 -RADZ BKN009 SSW (210°) 5.8mph 12°C 10°C
23/05/19 08:00 EICK 230700Z 21005KT 180V240 9999 FEW006 SCT008 BKN045 12/11 Q1016 BECMG 4000 -RADZ BKN009 SSW (210°) 5.8mph 12°C 11°C
23/05/19 07:30 EICK 230630Z VRB03KT 9999 FEW005 SCT040 BKN050 12/10 Q1016 BECMG 4000 -RADZ BKN009 N (0°) 3.5mph 12°C 10°C
23/05/19 07:00 EICK 230600Z 18003KT 150V210 9999 FEW008 SCT024 BKN060 11/10 Q1016 BECMG 4000 -RADZ BKN009 S (180°) 3.5mph 11°C 10°C
23/05/19 06:30 EICK 230530Z 17002KT 140V210 9999 FEW010 BKN050 11/10 Q1016 BECMG 4000 -RADZ BKN009 S (170°) 2.3mph 11°C 10°C
23/05/19 06:00 EICK 230500Z 18002KT 160V230 9999 FEW012 BKN045 11/10 Q1016 BECMG 4000 -RADZ BKN009 S (180°) 2.3mph 11°C 10°C
23/05/19 05:30 EICK 230430Z 17004KT 9999 FEW012 SCT025 BKN045 10/10 Q1016 BECMG 4000 -RADZ BKN009 S (170°) 4.6mph 10°C 10°C
23/05/19 05:00 EICK 230400Z 17003KT 9999 FEW018 BKN035 11/10 Q1016 NOSIG S (170°) 3.5mph 11°C 10°C
23/05/19 04:30 EICK 230330Z 20004KT 9999 FEW015 BKN035 11/10 Q1016 NOSIG SSW (200°) 4.6mph 11°C 10°C
23/05/19 04:00 EICK 230300Z 19003KT 9999 FEW015 BKN035 10/10 Q1016 NOSIG S (190°) 3.5mph 10°C 10°C
23/05/19 03:30 EICK 230230Z 18003KT 9999 FEW015 BKN045 BKN060 10/10 Q1016 NOSIG S (180°) 3.5mph 10°C 10°C
23/05/19 03:00 EICK 230200Z 18004KT 9999 FEW015 BKN045 10/09 Q1017 NOSIG S (180°) 4.6mph 10°C 9°C
23/05/19 02:30 EICK 230130Z 20004KT 160V220 9999 FEW015 BKN040 10/09 Q1017 NOSIG SSW (200°) 4.6mph 10°C 9°C
23/05/19 02:00 EICK 230100Z 21003KT 9999 FEW015 BKN040 10/09 Q1017 NOSIG SSW (210°) 3.5mph 10°C 9°C
23/05/19 01:30 EICK 230030Z 21005KT 9999 FEW015 BKN045 10/09 Q1017 NOSIG SSW (210°) 5.8mph 10°C 9°C
23/05/19 01:00 EICK 230000Z 20004KT 9999 FEW015 BKN050 10/09 Q1017 NOSIG SSW (200°) 4.6mph 10°C 9°C
23/05/19 00:30 EICK 222330Z 21004KT 9999 FEW015 BKN050 10/09 Q1017 NOSIG SSW (210°) 4.6mph 10°C 9°C
23/05/19 00:00 EICK 222300Z 21003KT 9999 FEW015 BKN050 10/09 Q1017 NOSIG SSW (210°) 3.5mph 10°C 9°C
22/05/19 23:30 EICK 222230Z 20004KT 160V230 9999 FEW016 BKN050 10/09 Q1018 NOSIG SSW (200°) 4.6mph 10°C 9°C
22/05/19 23:00 EICK 222200Z VRB01KT 9999 FEW016 BKN050 BKN200 10/09 Q1018 NOSIG N (0°) 1.2mph 10°C 9°C
22/05/19 22:30 EICK 222130Z 20002KT 9999 FEW016 SCT045 BKN250 09/08 Q1018 NOSIG SSW (200°) 2.3mph 9°C 8°C
22/05/19 22:00 EICK 222100Z VRB03KT 9999 FEW016 SCT035 BKN250 10/08 Q1018 NOSIG N (0°) 3.5mph 10°C 8°C
22/05/19 21:30 EICK 222030Z 19002KT 140V250 9999 FEW017 SCT040 BKN250 10/09 Q1018 NOSIG S (190°) 2.3mph 10°C 9°C
22/05/19 21:00 EICK 222000Z 21006KT 9999 FEW017 SCT050 BKN250 11/09 Q1018 NOSIG SSW (210°) 6.9mph 11°C 9°C
22/05/19 20:30 EICK 221930Z 21007KT 9999 FEW017 SCT050 BKN250 12/09 Q1018 NOSIG SSW (210°) 8.1mph 12°C 9°C
22/05/19 20:00 EICK 221900Z 21008KT 9999 FEW017 BKN050 BKN250 12/09 Q1018 NOSIG SSW (210°) 9.2mph 12°C 9°C
22/05/19 19:30 EICK 221830Z 20009KT 9999 FEW018 BKN035 BKN250 12/09 Q1018 NOSIG SSW (200°) 10.4mph 12°C 9°C
22/05/19 19:00 EICK 221800Z 21010KT 9999 FEW018 BKN035 BKN250 13/08 Q1018 NOSIG SSW (210°) 11.5mph 13°C 8°C
22/05/19 18:30 EICK 221730Z 21009KT 9999 FEW020 BKN250 13/07 Q1018 NOSIG SSW (210°) 10.4mph 13°C 7°C
22/05/19 18:00 EICK 221700Z 19010KT 150V220 9999 SCT020 BKN250 14/09 Q1018 NOSIG S (190°) 11.5mph 14°C 9°C
22/05/19 17:30 EICK 221630Z 19010KT 150V230 9999 SCT020 BKN250 14/09 Q1018 NOSIG S (190°) 11.5mph 14°C 9°C
22/05/19 17:00 EICK 221600Z 17009KT 150V210 9999 SCT020 SCT030 BKN250 14/08 Q1018 NOSIG S (170°) 10.4mph 14°C 8°C
22/05/19 16:30 EICK 221530Z 19009KT 160V230 9999 SCT022 SCT030 BKN250 15/09 Q1018 NOSIG S (190°) 10.4mph 15°C 9°C
22/05/19 16:00 EICK 221500Z 18008KT 150V220 9999 FEW024 SCT037 BKN250 15/09 Q1019 NOSIG S (180°) 9.2mph 15°C 9°C
22/05/19 15:30 EICK 221430Z 18009KT 150V230 9999 BKN024 BKN038 14/08 Q1019 NOSIG S (180°) 10.4mph 14°C 8°C
22/05/19 15:00 EICK 221400Z 19009KT 150V230 9999 BKN023 BKN038 14/08 Q1019 NOSIG S (190°) 10.4mph 14°C 8°C
22/05/19 14:30 EICK 221330Z 19009KT 140V230 9999 FEW015 BKN025 14/09 Q1019 NOSIG S (190°) 10.4mph 14°C 9°C
22/05/19 14:00 EICK 221300Z 18007KT 150V220 9999 SCT015 BKN030 13/08 Q1019 NOSIG S (180°) 8.1mph 13°C 8°C
22/05/19 13:30 EICK 221230Z 17008KT 140V210 9999 SCT012 BKN016 12/10 Q1019 NOSIG S (170°) 9.2mph 12°C 10°C